createdAt,value
2022-08-11T00:02:41.522Z,4.00
2022-08-11T00:05:12.141Z,4.40
2022-08-11T00:07:52.322Z,4.90
2022-08-11T00:10:22.390Z,4.40
2022-08-11T00:13:04.924Z,4.20
2022-08-11T00:15:44.177Z,3.80
2022-08-11T00:18:12.166Z,4.30
2022-08-11T00:20:42.165Z,4.00
2022-08-11T00:23:17.449Z,4.30
2022-08-11T00:25:50.274Z,4.40
2022-08-11T00:28:32.363Z,4.70
2022-08-11T00:31:05.711Z,4.90
2022-08-11T00:33:44.288Z,4.50
2022-08-11T00:36:22.071Z,4.40
2022-08-11T00:38:53.096Z,4.20
2022-08-11T00:41:39.496Z,3.80
2022-08-11T00:44:21.546Z,3.90
2022-08-11T00:47:10.200Z,4.10
2022-08-11T00:50:01.559Z,4.10
2022-08-11T00:53:05.781Z,3.70
2022-08-11T00:56:14.248Z,4.00
2022-08-11T00:59:34.592Z,4.00
2022-08-11T01:02:07.535Z,3.90
2022-08-11T01:05:15.250Z,3.70
2022-08-11T01:08:08.172Z,3.40
2022-08-11T01:11:03.075Z,3.40
2022-08-11T01:13:51.295Z,3.50
2022-08-11T01:16:47.222Z,3.30
2022-08-11T01:20:39.710Z,4.00
2022-08-11T01:23:31.528Z,3.60
2022-08-11T01:26:48.695Z,3.40
2022-08-11T01:29:34.130Z,3.60
2022-08-11T01:32:22.262Z,3.50
2022-08-11T01:35:10.412Z,3.80
2022-08-11T01:37:53.023Z,3.40
2022-08-11T01:40:41.141Z,3.20
2022-08-11T01:43:55.921Z,3.30
2022-08-11T01:46:33.865Z,3.80
2022-08-11T01:50:06.445Z,5.20
2022-08-11T01:52:35.153Z,7.00
2022-08-11T01:55:13.365Z,7.20
2022-08-11T01:57:53.775Z,6.50
2022-08-11T02:00:25.207Z,4.80
2022-08-11T02:02:58.455Z,4.10
2022-08-11T02:05:46.624Z,3.70
2022-08-11T02:08:50.473Z,3.50
2022-08-11T02:11:37.499Z,3.30
2022-08-11T02:14:39.960Z,3.50
2022-08-11T02:17:55.380Z,3.30
2022-08-11T02:20:51.928Z,3.30
2022-08-11T02:24:05.835Z,3.30
2022-08-11T02:26:47.095Z,3.30
2022-08-11T02:29:22.642Z,2.90
2022-08-11T02:32:48.496Z,2.80
2022-08-11T02:35:42.996Z,3.10
2022-08-11T02:38:25.260Z,3.30
2022-08-11T02:41:26.022Z,3.00
2022-08-11T02:44:09.664Z,3.50
2022-08-11T02:47:23.884Z,3.00
2022-08-11T02:50:11.191Z,2.70
2022-08-11T02:52:59.771Z,2.80
2022-08-11T02:56:01.478Z,2.90
2022-08-11T02:59:06.418Z,3.20
2022-08-11T03:01:46.006Z,3.20
2022-08-11T03:04:23.100Z,3.40
2022-08-11T03:07:28.855Z,3.60
2022-08-11T03:10:25.074Z,3.50
2022-08-11T03:13:14.221Z,3.80
2022-08-11T03:28:08.819Z,4.50
2022-08-11T03:30:47.308Z,4.10
2022-08-11T03:33:52.523Z,3.70
2022-08-11T03:37:14.938Z,3.60
2022-08-11T03:40:00.619Z,3.60
2022-08-11T03:42:41.721Z,3.60
2022-08-11T03:45:31.054Z,4.00
2022-08-11T03:48:11.445Z,3.70
2022-08-11T03:50:56.535Z,3.80
2022-08-11T03:53:42.714Z,3.70
2022-08-11T03:56:57.695Z,3.50
2022-08-11T03:59:42.917Z,3.50
2022-08-11T04:02:35.781Z,3.90
2022-08-11T04:05:40.084Z,3.20
2022-08-11T04:08:18.988Z,3.70
2022-08-11T04:11:30.578Z,3.70
2022-08-11T04:14:55.676Z,3.60
2022-08-11T04:17:55.822Z,3.40
2022-08-11T04:21:00.886Z,3.00
2022-08-11T04:24:37.065Z,3.80
2022-08-11T04:28:06.384Z,3.00
2022-08-11T04:31:51.247Z,3.00
2022-08-11T04:34:49.812Z,2.90
2022-08-11T04:37:35.007Z,3.10
2022-08-11T04:40:39.462Z,3.30
2022-08-11T04:44:05.811Z,3.00
2022-08-11T04:47:08.929Z,3.10
2022-08-11T04:50:09.190Z,2.80
2022-08-11T04:53:21.929Z,2.90
2022-08-11T04:56:30.043Z,2.90
2022-08-11T04:59:37.165Z,2.90
2022-08-11T05:06:00.241Z,3.00
2022-08-11T05:09:14.987Z,2.60
2022-08-11T05:12:20.768Z,2.90
2022-08-11T05:15:10.168Z,2.70
2022-08-11T05:18:13.095Z,2.50
2022-08-11T05:21:11.620Z,2.40
2022-08-11T05:24:02.167Z,2.60
2022-08-11T05:26:57.322Z,2.50
2022-08-11T05:29:56.281Z,2.80
2022-08-11T05:32:43.202Z,2.50
2022-08-11T05:36:00.519Z,2.60
2022-08-11T05:38:18.572Z,2.40
2022-08-11T05:41:15.722Z,2.80
2022-08-11T05:44:20.511Z,2.70
2022-08-11T05:47:08.608Z,2.80
2022-08-11T05:49:55.430Z,2.80
2022-08-11T05:52:47.088Z,2.60
2022-08-11T05:55:35.716Z,3.10
2022-08-11T05:58:21.003Z,2.70
2022-08-11T06:01:03.158Z,2.70
2022-08-11T06:03:33.064Z,2.40
2022-08-11T06:06:00.227Z,2.40
2022-08-11T06:08:37.354Z,2.60
2022-08-11T06:11:06.163Z,3.10
2022-08-11T06:13:35.507Z,2.70
2022-08-11T06:16:35.479Z,2.70
2022-08-11T06:19:04.278Z,2.40
2022-08-11T06:21:38.534Z,2.50
2022-08-11T06:24:13.325Z,2.70
2022-08-11T06:27:11.342Z,2.60
2022-08-11T06:29:54.287Z,2.60
2022-08-11T06:32:26.067Z,3.10
2022-08-11T06:35:49.024Z,3.10
2022-08-11T06:38:30.866Z,3.30
2022-08-11T06:41:22.860Z,3.20
2022-08-11T06:44:13.982Z,3.20
2022-08-11T06:46:51.196Z,3.40
2022-08-11T06:49:41.292Z,3.50
2022-08-11T06:52:35.955Z,3.20
2022-08-11T06:55:57.376Z,2.90
2022-08-11T06:58:44.777Z,2.60
2022-08-11T07:01:16.091Z,2.50
2022-08-11T07:03:52.831Z,2.70
2022-08-11T07:06:50.667Z,2.60
2022-08-11T07:09:58.781Z,2.40
2022-08-11T07:12:57.356Z,2.50
2022-08-11T07:16:11.575Z,2.10
2022-08-11T07:19:00.997Z,2.30
2022-08-11T07:22:02.514Z,2.00
2022-08-11T07:25:03.654Z,2.40
2022-08-11T07:28:17.131Z,2.50
2022-08-11T07:30:45.028Z,2.40
2022-08-11T07:34:04.861Z,2.40
2022-08-11T07:36:08.568Z,2.30
2022-08-11T07:38:47.297Z,2.30
2022-08-11T07:41:19.662Z,1.70
2022-08-11T07:43:51.111Z,1.70
2022-08-11T07:46:38.511Z,1.90
2022-08-11T07:49:28.734Z,1.70
2022-08-11T07:52:15.201Z,1.80
2022-08-11T07:54:44.072Z,1.80
2022-08-11T07:57:46.132Z,1.50
2022-08-11T08:00:42.277Z,1.80
2022-08-11T08:03:28.653Z,1.70
2022-08-11T08:06:22.255Z,1.60
2022-08-11T08:09:21.322Z,1.60
2022-08-11T08:12:07.676Z,1.60
2022-08-11T08:14:54.352Z,1.60
2022-08-11T08:17:41.717Z,1.50
2022-08-11T08:20:13.734Z,1.90
2022-08-11T08:22:46.406Z,1.60
2022-08-11T08:25:16.238Z,1.40
2022-08-11T08:27:44.250Z,2.00
2022-08-11T08:30:31.276Z,1.80
2022-08-11T08:33:01.128Z,1.30
2022-08-11T08:35:32.882Z,1.90
2022-08-11T08:38:01.171Z,1.60
2022-08-11T08:40:28.828Z,1.60
2022-08-11T08:42:58.735Z,1.40
2022-08-11T08:45:27.528Z,1.60
2022-08-11T08:48:05.256Z,1.50
2022-08-11T08:51:08.035Z,1.70
2022-08-11T08:53:39.191Z,1.50
2022-08-11T08:56:25.361Z,2.20
2022-08-11T08:58:52.499Z,1.40
2022-08-11T09:01:22.593Z,1.30
2022-08-11T09:04:04.079Z,1.40
2022-08-11T09:06:35.723Z,1.40
2022-08-11T09:09:02.762Z,1.30
2022-08-11T09:11:48.009Z,1.50
2022-08-11T09:14:15.406Z,1.40
2022-08-11T09:16:44.447Z,1.30
2022-08-11T09:19:17.670Z,1.50
2022-08-11T09:22:10.666Z,1.40
2022-08-11T09:24:59.212Z,1.40
2022-08-11T09:27:27.811Z,1.40
2022-08-11T09:29:55.872Z,1.30
2022-08-11T09:32:23.701Z,1.50
2022-08-11T09:34:54.060Z,1.30
2022-08-11T09:37:55.253Z,1.40
2022-08-11T09:40:32.351Z,1.30
2022-08-11T09:43:21.640Z,1.40
2022-08-11T09:45:53.595Z,1.30
2022-08-11T09:48:34.811Z,1.50
2022-08-11T09:51:02.888Z,1.50
2022-08-11T09:53:41.499Z,1.50
2022-08-11T09:56:32.077Z,1.40
2022-08-11T09:59:00.329Z,1.50
2022-08-11T10:01:42.412Z,1.80
2022-08-11T10:04:17.539Z,1.50
2022-08-11T10:07:05.583Z,1.80
2022-08-11T10:09:44.473Z,3.60
2022-08-11T10:12:34.670Z,2.00
2022-08-11T10:15:26.743Z,1.90
2022-08-11T10:18:21.539Z,2.10
2022-08-11T10:20:51.608Z,1.80
2022-08-11T10:24:00.995Z,2.30
2022-08-11T10:26:46.471Z,2.10
2022-08-11T10:29:37.411Z,2.10
2022-08-11T10:32:31.333Z,2.00
2022-08-11T10:35:02.269Z,1.90
2022-08-11T10:38:08.357Z,2.10
2022-08-11T10:40:23.814Z,2.30
2022-08-11T10:43:07.659Z,2.30
2022-08-11T10:45:55.588Z,2.40
2022-08-11T10:48:35.324Z,2.00
2022-08-11T10:51:15.777Z,2.30
2022-08-11T10:54:21.649Z,2.00
2022-08-11T10:57:07.573Z,2.20
2022-08-11T10:59:35.439Z,2.00
2022-08-11T11:02:03.386Z,2.30
2022-08-11T11:04:52.706Z,2.40
2022-08-11T11:07:27.460Z,1.90
2022-08-11T11:10:02.966Z,2.10
2022-08-11T11:12:57.710Z,2.10
2022-08-11T11:15:47.639Z,2.20
2022-08-11T11:18:28.894Z,2.20
2022-08-11T11:21:18.945Z,2.50
2022-08-11T11:23:54.872Z,2.10
2022-08-11T11:26:50.585Z,2.20
2022-08-11T11:29:41.896Z,2.00
2022-08-11T11:32:33.886Z,2.10
2022-08-11T11:35:29.710Z,2.30
2022-08-11T11:38:05.185Z,2.20
2022-08-11T11:40:33.902Z,2.10
2022-08-11T11:43:02.528Z,2.20
2022-08-11T11:45:30.257Z,2.30
2022-08-11T11:48:00.171Z,2.30
2022-08-11T11:50:37.390Z,2.30
2022-08-11T11:53:07.235Z,2.90
2022-08-11T11:55:35.420Z,2.70
2022-08-11T11:58:23.008Z,2.30
2022-08-11T12:01:11.562Z,2.20
2022-08-11T12:03:40.745Z,2.40
2022-08-11T12:06:09.809Z,2.20
2022-08-11T12:08:37.965Z,2.20
2022-08-11T12:11:27.974Z,2.20
2022-08-11T12:13:58.823Z,2.20
2022-08-11T12:16:33.158Z,1.90
2022-08-11T12:19:06.418Z,1.90
2022-08-11T12:21:36.047Z,1.80
2022-08-11T12:24:22.545Z,2.00
2022-08-11T12:27:18.137Z,2.20
2022-08-11T12:29:57.579Z,1.80
2022-08-11T12:32:28.543Z,1.90
2022-08-11T12:34:58.340Z,2.10
2022-08-11T12:37:31.066Z,2.00
2022-08-11T12:40:43.335Z,1.90
2022-08-11T12:43:38.415Z,2.20
2022-08-11T12:46:43.008Z,1.90
2022-08-11T12:49:34.111Z,1.90
2022-08-11T12:52:15.854Z,2.10
2022-08-11T12:54:52.412Z,1.90
2022-08-11T12:57:52.520Z,2.30
2022-08-11T13:00:38.921Z,2.00
2022-08-11T13:03:27.902Z,2.70
2022-08-11T13:06:00.872Z,2.00
2022-08-11T13:08:29.779Z,2.10
2022-08-11T13:11:18.932Z,2.20
2022-08-11T13:13:53.853Z,2.00
2022-08-11T13:16:29.290Z,1.80
2022-08-11T13:18:58.942Z,1.50
2022-08-11T13:21:27.742Z,1.80
2022-08-11T13:24:01.886Z,1.80
2022-08-11T13:26:48.378Z,1.90
2022-08-11T13:29:28.980Z,1.70
2022-08-11T13:32:02.443Z,1.60
2022-08-11T13:34:34.466Z,1.80
2022-08-11T13:37:05.551Z,2.00
2022-08-11T13:39:34.842Z,1.90
2022-08-11T13:42:02.884Z,1.80
2022-08-11T13:44:36.315Z,1.80
2022-08-11T13:47:06.704Z,1.70
2022-08-11T13:49:39.727Z,1.90
2022-08-11T13:52:13.171Z,1.80
2022-08-11T13:54:42.732Z,1.80
2022-08-11T13:58:05.950Z,1.90
2022-08-11T14:00:13.385Z,1.60
2022-08-11T14:02:54.222Z,1.70
2022-08-11T14:05:28.374Z,1.70
2022-08-11T14:08:38.127Z,1.80
2022-08-11T14:12:21.726Z,1.90
2022-08-11T14:14:13.851Z,1.90
2022-08-11T14:16:45.043Z,1.80
2022-08-11T14:19:14.934Z,1.60
2022-08-11T14:22:07.295Z,1.90
2022-08-11T14:24:43.869Z,1.90
2022-08-11T14:27:39.069Z,2.10
2022-08-11T14:30:00.286Z,2.00
2022-08-11T14:32:27.708Z,2.40
2022-08-11T14:34:55.366Z,1.80
2022-08-11T14:37:25.693Z,1.90
2022-08-11T14:40:02.963Z,1.80
2022-08-11T14:42:49.863Z,1.60
2022-08-11T14:45:57.853Z,1.70
2022-08-11T14:48:23.796Z,1.50
2022-08-11T14:50:51.583Z,1.70
2022-08-11T14:53:22.713Z,1.90
2022-08-11T14:56:09.886Z,10.70
2022-08-11T14:58:38.121Z,25.10
2022-08-11T15:01:28.738Z,9.70
2022-08-11T15:04:31.311Z,5.60
2022-08-11T15:06:46.126Z,4.10
2022-08-11T15:09:13.325Z,8.40
2022-08-11T15:11:59.889Z,5.50
2022-08-11T15:14:46.016Z,2.30
2022-08-11T15:17:13.888Z,1.50
2022-08-11T15:20:02.152Z,1.50
2022-08-11T15:22:47.788Z,1.50
2022-08-11T15:25:15.014Z,1.70
2022-08-11T15:28:04.994Z,1.60
2022-08-11T15:30:50.566Z,1.30
2022-08-11T15:33:38.470Z,1.50
2022-08-11T15:36:27.860Z,1.50
2022-08-11T15:39:00.355Z,1.70
2022-08-11T15:41:59.036Z,1.70
2022-08-11T15:45:05.061Z,2.20
2022-08-11T15:47:45.945Z,1.50
2022-08-11T15:50:20.076Z,1.60
2022-08-11T15:53:28.539Z,1.60
2022-08-11T15:55:56.717Z,1.30
2022-08-11T15:58:48.315Z,1.50
2022-08-11T16:01:55.865Z,1.60
2022-08-11T16:04:27.265Z,1.40
2022-08-11T16:07:12.936Z,1.50
2022-08-11T16:09:52.661Z,1.50
2022-08-11T16:12:35.875Z,1.40
2022-08-11T16:15:25.767Z,1.20
2022-08-11T16:17:58.728Z,1.50
2022-08-11T16:20:28.542Z,1.50
2022-08-11T16:23:04.044Z,1.50
2022-08-11T16:27:01.927Z,1.40
2022-08-11T16:28:23.569Z,1.50
2022-08-11T16:30:51.830Z,1.90
2022-08-11T16:33:48.662Z,1.80
2022-08-11T16:36:30.603Z,1.90
2022-08-11T16:38:59.902Z,1.70
2022-08-11T16:41:52.044Z,1.50
2022-08-11T16:44:40.090Z,1.50
2022-08-11T16:47:11.185Z,1.60
2022-08-11T16:49:52.340Z,1.40
2022-08-11T16:52:21.433Z,1.30
2022-08-11T16:54:48.607Z,1.30
2022-08-11T16:57:46.044Z,1.40
2022-08-11T17:00:15.927Z,1.70
2022-08-11T17:03:08.746Z,1.40
2022-08-11T17:05:57.719Z,2.00
2022-08-11T17:08:58.857Z,1.60
2022-08-11T17:11:51.958Z,1.70
2022-08-11T17:14:35.146Z,1.50
2022-08-11T17:17:14.171Z,1.80
2022-08-11T17:20:40.517Z,1.80
2022-08-11T17:23:01.556Z,1.80
2022-08-11T17:26:03.358Z,1.90
2022-08-11T17:28:21.719Z,2.10
2022-08-11T17:31:22.628Z,1.80
2022-08-11T17:34:10.128Z,2.40
2022-08-11T17:36:41.538Z,2.20
2022-08-11T17:39:12.284Z,1.90
2022-08-11T17:41:59.010Z,2.10
2022-08-11T17:44:45.898Z,1.90
2022-08-11T17:47:33.010Z,1.60
2022-08-11T17:50:09.290Z,1.50
2022-08-11T17:53:03.824Z,1.80
2022-08-11T17:55:53.418Z,2.10
2022-08-11T17:58:40.831Z,2.00
2022-08-11T18:01:11.221Z,2.20
2022-08-11T18:03:41.336Z,1.90
2022-08-11T18:06:12.207Z,1.80
2022-08-11T18:09:04.315Z,1.70
2022-08-11T18:12:10.960Z,1.80
2022-08-11T18:14:59.238Z,1.80
2022-08-11T18:17:45.095Z,1.90
2022-08-11T18:20:30.554Z,1.50
2022-08-11T18:23:18.354Z,1.80
2022-08-11T18:26:07.718Z,1.70
2022-08-11T18:29:06.656Z,1.70
2022-08-11T18:31:55.591Z,1.70
2022-08-11T18:34:49.219Z,1.70
2022-08-11T18:37:38.628Z,1.40
2022-08-11T18:40:33.573Z,1.70
2022-08-11T18:43:27.094Z,1.60
2022-08-11T18:46:24.984Z,1.90
2022-08-11T18:49:19.680Z,1.70
2022-08-11T18:52:09.609Z,1.70
2022-08-11T18:54:57.759Z,1.70
2022-08-11T18:57:49.356Z,2.00
2022-08-11T19:00:41.495Z,2.40
2022-08-11T19:03:29.999Z,1.80
2022-08-11T19:06:38.082Z,1.80
2022-08-11T19:09:29.139Z,1.80
2022-08-11T19:12:17.078Z,1.80
2022-08-11T19:15:04.425Z,1.70
2022-08-11T19:17:52.172Z,2.30
2022-08-11T19:20:40.964Z,3.30
2022-08-11T19:23:29.828Z,2.60
2022-08-11T19:26:17.616Z,2.20
2022-08-11T19:29:06.620Z,2.00
2022-08-11T19:31:52.978Z,1.90
2022-08-11T19:34:42.591Z,2.00
2022-08-11T19:37:29.923Z,2.10
2022-08-11T19:40:26.876Z,1.80
2022-08-11T19:43:23.760Z,1.90
2022-08-11T19:46:14.372Z,1.70
2022-08-11T19:49:02.011Z,2.00
2022-08-11T19:51:53.648Z,2.00
2022-08-11T19:54:43.431Z,1.80
2022-08-11T19:57:31.726Z,1.90
2022-08-11T20:00:20.945Z,1.90
2022-08-11T20:03:09.425Z,2.00
2022-08-11T20:05:59.680Z,1.90
2022-08-11T20:08:48.337Z,2.40
2022-08-11T20:11:36.644Z,2.90
2022-08-11T20:14:24.813Z,2.60
2022-08-11T20:17:13.124Z,2.50
2022-08-11T20:22:51.222Z,2.40
2022-08-11T20:25:39.128Z,2.30
2022-08-11T20:28:26.107Z,2.30
2022-08-11T20:31:12.925Z,2.20
2022-08-11T20:34:00.794Z,1.90
2022-08-11T20:36:54.111Z,2.10
2022-08-11T20:39:42.113Z,2.20
2022-08-11T20:42:30.742Z,2.50
2022-08-11T20:45:23.505Z,2.20
2022-08-11T20:48:14.683Z,2.20
2022-08-11T20:51:06.201Z,2.20
2022-08-11T20:53:56.795Z,2.10
2022-08-11T20:56:46.072Z,2.30
2022-08-11T20:59:49.443Z,1.90
2022-08-11T21:02:41.207Z,1.80
2022-08-11T21:06:09.547Z,2.00
2022-08-11T21:08:41.771Z,1.80
2022-08-11T21:11:29.719Z,2.60
2022-08-11T21:14:17.653Z,1.90
2022-08-11T21:17:26.960Z,2.00
2022-08-11T21:20:20.811Z,1.90
2022-08-11T21:23:18.495Z,2.00
2022-08-11T21:26:23.014Z,1.90
2022-08-11T21:29:11.864Z,1.80
2022-08-11T21:31:59.273Z,1.90
2022-08-11T21:34:45.734Z,1.80
2022-08-11T21:37:34.618Z,1.70
2022-08-11T21:40:24.140Z,1.90
2022-08-11T21:43:13.068Z,1.70
2022-08-11T21:46:00.109Z,1.70
2022-08-11T21:48:48.092Z,1.50
2022-08-11T21:51:33.814Z,1.80
2022-08-11T21:54:20.227Z,1.80
2022-08-11T21:57:07.134Z,1.70
2022-08-11T22:00:14.675Z,1.90
2022-08-11T22:03:05.952Z,1.80
2022-08-11T22:05:53.292Z,1.80
2022-08-11T22:08:40.289Z,1.70
2022-08-11T22:11:31.721Z,1.90
2022-08-11T22:14:20.937Z,2.20
2022-08-11T22:17:06.645Z,1.70
2022-08-11T22:19:55.238Z,1.90
2022-08-11T22:22:52.047Z,2.30
2022-08-11T22:25:46.449Z,2.00
2022-08-11T22:28:38.592Z,1.80
2022-08-11T22:31:25.993Z,1.80
2022-08-11T22:34:11.698Z,1.80
2022-08-11T22:36:59.606Z,2.00
2022-08-11T22:39:48.083Z,1.70
2022-08-11T22:42:49.907Z,1.80
2022-08-11T22:45:35.198Z,2.10
2022-08-11T22:48:23.749Z,1.80
2022-08-11T22:51:11.149Z,2.00
2022-08-11T22:53:59.119Z,1.80
2022-08-11T22:56:49.333Z,1.90
2022-08-11T22:59:37.244Z,1.90
2022-08-11T23:02:24.226Z,1.80
2022-08-11T23:05:11.219Z,1.90
2022-08-11T23:07:57.688Z,2.10
2022-08-11T23:10:45.034Z,2.30
2022-08-11T23:13:30.764Z,2.70
2022-08-11T23:16:17.586Z,2.30
2022-08-11T23:19:04.543Z,2.30
2022-08-11T23:21:51.391Z,1.90
2022-08-11T23:24:37.999Z,2.20
2022-08-11T23:27:25.128Z,1.90
2022-08-11T23:30:16.888Z,1.80
2022-08-11T23:33:06.927Z,1.80
2022-08-11T23:35:58.041Z,1.80
2022-08-11T23:38:47.111Z,1.70
2022-08-11T23:41:34.636Z,1.70
2022-08-11T23:44:22.894Z,1.80
2022-08-11T23:47:11.122Z,1.90
2022-08-11T23:49:57.508Z,1.90
2022-08-11T23:52:46.290Z,1.80
2022-08-11T23:55:32.253Z,1.70
2022-08-11T23:58:17.957Z,1.90
